createdAt,value
2018-12-21T00:00:46.033Z,938.5
2018-12-21T00:01:45.917Z,938.7
2018-12-21T00:02:45.801Z,938.6
2018-12-21T00:03:45.687Z,938.5
2018-12-21T00:04:45.569Z,938.6
2018-12-21T00:05:45.503Z,938.5
2018-12-21T00:06:45.799Z,938.6
2018-12-21T00:07:45.677Z,938.6
2018-12-21T00:08:45.579Z,938.7
2018-12-21T00:09:45.485Z,938.7
2018-12-21T00:10:45.389Z,938.7
2018-12-21T00:11:45.271Z,938.8
2018-12-21T00:12:45.205Z,938.8
2018-12-21T00:13:45.093Z,938.6
2018-12-21T00:14:45.066Z,938.7
2018-12-21T00:15:44.945Z,938.5
2018-12-21T00:16:45.253Z,938.6
2018-12-21T00:17:45.151Z,938.7
2018-12-21T00:18:45.036Z,938.7
2018-12-21T00:19:45.033Z,938.7
2018-12-21T00:20:45.056Z,938.7
2018-12-21T00:21:44.965Z,938.7
2018-12-21T00:22:44.855Z,938.7
2018-12-21T00:23:44.742Z,938.7
2018-12-21T00:24:44.638Z,938.7
2018-12-21T00:25:44.527Z,938.6
2018-12-21T00:26:44.865Z,938.7
2018-12-21T00:27:44.977Z,938.6
2018-12-21T00:28:44.848Z,938.6
2018-12-21T00:29:44.739Z,938.5
2018-12-21T00:30:44.631Z,938.6
2018-12-21T00:31:44.522Z,938.7
2018-12-21T00:32:44.434Z,938.6
2018-12-21T00:33:44.319Z,938.6
2018-12-21T00:34:44.230Z,938.6
2018-12-21T00:35:44.121Z,938.7
2018-12-21T00:36:44.450Z,938.6
2018-12-21T00:37:44.371Z,938.6
2018-12-21T00:38:44.280Z,938.6
2018-12-21T00:39:44.161Z,938.5
2018-12-21T00:40:44.051Z,938.5
2018-12-21T00:41:43.934Z,938.6
2018-12-21T00:42:43.817Z,938.5
2018-12-21T00:43:43.710Z,938.4
2018-12-21T00:44:43.614Z,938.5
2018-12-21T00:45:43.729Z,938.4
2018-12-21T00:46:44.039Z,938.4
2018-12-21T00:47:43.935Z,938.5
2018-12-21T00:48:44.096Z,938.4
2018-12-21T00:49:43.819Z,938.3
2018-12-21T00:50:43.546Z,938.4
2018-12-21T00:51:43.272Z,938.4
2018-12-21T00:52:43.172Z,938.5
2018-12-21T00:53:42.912Z,938.3
2018-12-21T00:54:42.631Z,938.4
2018-12-21T00:55:42.364Z,938.1
2018-12-21T00:56:42.715Z,938.3
2018-12-21T00:57:42.589Z,938.2
2018-12-21T00:58:42.493Z,938.2
2018-12-21T00:59:42.396Z,938.2
2018-12-21T01:00:42.293Z,938.3
2018-12-21T01:01:42.197Z,938.1
2018-12-21T01:02:42.345Z,938.2
2018-12-21T01:03:42.254Z,938.2
2018-12-21T01:04:42.153Z,938.2
2018-12-21T01:05:42.054Z,938.2
2018-12-21T01:06:42.500Z,938.2
2018-12-21T01:07:42.454Z,938.2
2018-12-21T01:08:42.364Z,938.2
2018-12-21T01:09:42.302Z,938.3
2018-12-21T01:10:42.198Z,938.3
2018-12-21T01:11:42.129Z,938.3
2018-12-21T01:12:42.110Z,938.3
2018-12-21T01:13:42.030Z,938.3
2018-12-21T01:14:41.929Z,938.3
2018-12-21T01:15:41.833Z,938.3
2018-12-21T01:16:42.358Z,938.3
2018-12-21T01:17:42.235Z,938.3
2018-12-21T01:18:42.117Z,938.3
2018-12-21T01:19:41.991Z,938.3
2018-12-21T01:20:41.893Z,938.3
2018-12-21T01:21:41.790Z,938.3
2018-12-21T01:22:41.684Z,938.3
2018-12-21T01:23:41.569Z,938.4
2018-12-21T01:24:41.465Z,938.4
2018-12-21T01:25:41.367Z,938.3
2018-12-21T01:26:42.035Z,938.3
2018-12-21T01:27:41.927Z,938.4
2018-12-21T01:28:41.823Z,938.4
2018-12-21T01:29:41.695Z,938.4
2018-12-21T01:30:41.566Z,938.2
2018-12-21T01:31:41.455Z,938.4
2018-12-21T01:32:41.337Z,938.4
2018-12-21T01:33:41.246Z,938.4
2018-12-21T01:34:41.233Z,938.4
2018-12-21T01:35:41.130Z,938.5
2018-12-21T01:36:41.494Z,938.5
2018-12-21T01:37:41.388Z,938.5
2018-12-21T01:38:41.278Z,938.4
2018-12-21T01:39:41.178Z,938.5
2018-12-21T01:40:41.080Z,938.5
2018-12-21T01:41:41.083Z,938.5
2018-12-21T01:42:40.973Z,938.5
2018-12-21T01:43:40.857Z,938.5
2018-12-21T01:44:40.739Z,938.3
2018-12-21T01:45:40.615Z,938.3
2018-12-21T01:46:41.996Z,938.4
2018-12-21T01:47:41.875Z,938.3
2018-12-21T01:48:41.856Z,938.5
2018-12-21T01:49:41.762Z,938.6
2018-12-21T01:50:41.639Z,938.6
2018-12-21T01:51:48.125Z,938.5
2018-12-21T01:52:48.022Z,938.6
2018-12-21T01:53:47.902Z,938.6
2018-12-21T01:54:47.778Z,938.6
2018-12-21T01:55:47.666Z,938.5
2018-12-21T01:56:47.999Z,937
2018-12-21T01:57:47.880Z,938.5
2018-12-21T01:58:47.761Z,938.6
2018-12-21T01:59:47.660Z,938.6
2018-12-21T02:00:47.570Z,938.6
2018-12-21T02:01:47.470Z,938.5
2018-12-21T02:02:47.354Z,938.6
2018-12-21T02:03:47.242Z,938.5
2018-12-21T02:04:47.184Z,938.6
2018-12-21T02:05:47.061Z,938.5
2018-12-21T02:06:47.624Z,938.5
2018-12-21T02:07:47.495Z,938.5
2018-12-21T02:08:47.374Z,938.5
2018-12-21T02:09:50.048Z,938.4
2018-12-21T02:10:51.926Z,938.3
2018-12-21T02:11:51.818Z,938.3
2018-12-21T02:12:51.680Z,938.4
2018-12-21T02:13:51.558Z,938.4
2018-12-21T02:14:51.436Z,938.3
2018-12-21T02:15:51.341Z,938.3
2018-12-21T02:16:51.664Z,938.4
2018-12-21T02:17:51.559Z,938.4
2018-12-21T02:18:51.453Z,938.2
2018-12-21T02:19:51.464Z,938.3
2018-12-21T02:20:51.354Z,938.3
2018-12-21T02:21:56.918Z,938.3
2018-12-21T02:22:56.650Z,938.2
2018-12-21T02:23:56.529Z,938.3
2018-12-21T02:24:56.395Z,938.3
2018-12-21T02:25:56.115Z,938.2
2018-12-21T02:26:56.435Z,938.2
2018-12-21T02:27:56.369Z,938.1
2018-12-21T02:28:56.243Z,938.1
2018-12-21T02:29:56.145Z,938.2
2018-12-21T02:30:56.173Z,938.1
2018-12-21T02:31:56.087Z,938.1
2018-12-21T02:32:55.991Z,938.2
2018-12-21T02:33:55.901Z,938.1
2018-12-21T02:34:55.795Z,938
2018-12-21T02:35:55.669Z,938
2018-12-21T02:36:55.971Z,938
2018-12-21T02:37:55.856Z,938.1
2018-12-21T02:38:55.826Z,938
2018-12-21T02:39:55.723Z,938.1
2018-12-21T02:40:55.666Z,937.8
2018-12-21T02:41:55.589Z,938
2018-12-21T02:42:55.507Z,938
2018-12-21T02:43:55.435Z,938
2018-12-21T02:44:55.347Z,938
2018-12-21T02:45:55.261Z,938
2018-12-21T02:46:55.592Z,937.8
2018-12-21T02:47:55.479Z,938
2018-12-21T02:48:55.377Z,937.9
2018-12-21T02:49:55.263Z,938
2018-12-21T02:50:55.151Z,937.9
2018-12-21T02:51:55.015Z,937.7
2018-12-21T02:52:54.897Z,937.9
2018-12-21T02:53:54.976Z,937.8
2018-12-21T02:54:54.895Z,937.8
2018-12-21T02:55:54.790Z,937.9
2018-12-21T02:56:55.125Z,937.9
2018-12-21T02:57:55.003Z,937.9
2018-12-21T02:58:54.877Z,937.8
2018-12-21T02:59:54.757Z,937.7
2018-12-21T03:00:54.660Z,937.7
2018-12-21T03:01:54.567Z,937.8
2018-12-21T03:02:54.483Z,937.6
2018-12-21T03:03:54.356Z,938
2018-12-21T03:04:54.242Z,937.9
2018-12-21T03:05:54.147Z,938
2018-12-21T03:06:54.425Z,938
2018-12-21T03:07:54.305Z,937.9
2018-12-21T03:08:54.195Z,938
2018-12-21T03:09:54.078Z,938
2018-12-21T03:10:54.001Z,938
2018-12-21T03:11:53.902Z,938
2018-12-21T03:12:53.789Z,938
2018-12-21T03:13:53.672Z,938.1
2018-12-21T03:14:53.600Z,938
2018-12-21T03:15:53.475Z,938
2018-12-21T03:16:53.838Z,937.9
2018-12-21T03:17:53.736Z,938
2018-12-21T03:18:53.649Z,938
2018-12-21T03:19:53.631Z,937.9
2018-12-21T03:20:53.641Z,937.9
2018-12-21T03:21:53.556Z,937.9
2018-12-21T03:22:53.451Z,937.9
2018-12-21T03:23:53.391Z,938
2018-12-21T03:25:02.223Z,938
2018-12-21T03:26:02.126Z,937.8
2018-12-21T03:27:02.459Z,937.9
2018-12-21T03:28:02.342Z,937.9
2018-12-21T03:29:02.264Z,937.9
2018-12-21T03:30:02.190Z,937.9
2018-12-21T03:31:02.225Z,937.8
2018-12-21T03:32:02.220Z,937.8
2018-12-21T03:33:02.203Z,937.8
2018-12-21T03:34:02.192Z,937.9
2018-12-21T03:35:03.287Z,937.9
2018-12-21T03:36:03.213Z,937.9
2018-12-21T03:37:03.635Z,937.9
2018-12-21T03:38:03.547Z,937.8
2018-12-21T03:39:03.443Z,937.9
2018-12-21T03:40:03.340Z,937.7
2018-12-21T03:41:06.614Z,937.7
2018-12-21T03:42:06.508Z,937.8
2018-12-21T03:43:06.387Z,937.9
2018-12-21T03:44:06.504Z,937.9
2018-12-21T03:45:06.399Z,937.8
2018-12-21T03:46:06.302Z,937.9
2018-12-21T03:47:06.818Z,937.8
2018-12-21T03:48:06.724Z,937.8
2018-12-21T03:49:06.723Z,937.8
2018-12-21T03:50:06.601Z,937.8
2018-12-21T03:51:06.710Z,937.7
2018-12-21T03:52:06.619Z,937.8
2018-12-21T03:53:06.562Z,937.8
2018-12-21T03:54:06.294Z,937.7
2018-12-21T03:55:07.087Z,937.7
2018-12-21T03:56:06.999Z,937.5
2018-12-21T03:57:07.295Z,937.7
2018-12-21T03:58:07.225Z,937.7
2018-12-21T03:59:07.110Z,937.7
2018-12-21T04:00:06.987Z,937.7
2018-12-21T04:01:06.918Z,937.6
2018-12-21T04:02:06.816Z,937.7
2018-12-21T04:03:06.710Z,937.6
2018-12-21T04:04:06.619Z,937.6
2018-12-21T04:05:09.314Z,937.6
2018-12-21T04:06:09.194Z,937.5
2018-12-21T04:07:09.528Z,937.5
2018-12-21T04:08:09.534Z,937.5
2018-12-21T04:09:09.462Z,937.4
2018-12-21T04:10:09.379Z,937.3
2018-12-21T04:11:09.276Z,937.4
2018-12-21T04:12:09.172Z,937.3
2018-12-21T04:13:09.090Z,937.4
2018-12-21T04:14:08.992Z,936
2018-12-21T04:15:08.904Z,937.5
2018-12-21T04:16:08.896Z,937.4
2018-12-21T04:17:09.265Z,937.2
2018-12-21T04:18:09.164Z,937.2
2018-12-21T04:19:09.102Z,937.1
2018-12-21T04:20:09.004Z,937.3
2018-12-21T04:21:08.918Z,937.4
2018-12-21T04:22:08.817Z,937.2
2018-12-21T04:23:08.746Z,937.3
2018-12-21T04:24:08.486Z,937.2
2018-12-21T04:25:08.231Z,937.2
2018-12-21T04:26:07.990Z,937.3
2018-12-21T04:27:08.433Z,937.2
2018-12-21T04:28:08.314Z,937.2
2018-12-21T04:29:08.658Z,937.1
2018-12-21T04:30:08.729Z,937.1
2018-12-21T04:31:08.645Z,937.2
2018-12-21T04:32:08.559Z,937.2
2018-12-21T04:33:08.440Z,937.2
2018-12-21T04:34:08.438Z,937.2
2018-12-21T04:35:08.546Z,937.1
2018-12-21T04:36:08.467Z,937.1
2018-12-21T04:37:08.784Z,937.1
2018-12-21T04:38:08.689Z,937
2018-12-21T04:39:08.606Z,937
2018-12-21T04:40:08.510Z,937
2018-12-21T04:41:08.450Z,937
2018-12-21T04:42:08.374Z,936.9
2018-12-21T04:43:08.284Z,936.8
2018-12-21T04:44:08.716Z,936.8
2018-12-21T04:45:08.620Z,936.7
2018-12-21T04:46:08.458Z,936.8
2018-12-21T04:47:08.797Z,936.6
2018-12-21T04:48:08.715Z,936.9
2018-12-21T04:49:08.618Z,936.8
2018-12-21T04:50:08.747Z,936.8
2018-12-21T04:51:08.657Z,936.8
2018-12-21T04:52:08.586Z,936.8
2018-12-21T04:53:08.506Z,936.8
2018-12-21T04:54:08.429Z,936.6
2018-12-21T04:55:08.329Z,936.5
2018-12-21T04:56:08.224Z,936.5
2018-12-21T04:57:08.570Z,936.7
2018-12-21T04:58:08.529Z,936.6
2018-12-21T04:59:10.648Z,936.5
2018-12-21T05:00:10.540Z,936.5
2018-12-21T05:01:10.444Z,936.5
2018-12-21T05:02:10.392Z,936.4
2018-12-21T05:03:10.286Z,936.5
2018-12-21T05:04:20.723Z,936.4
2018-12-21T05:05:20.650Z,936.5
2018-12-21T05:06:20.538Z,936.4
2018-12-21T05:07:20.870Z,936.4
2018-12-21T05:08:20.752Z,936.4
2018-12-21T05:09:20.638Z,936.5
2018-12-21T05:10:20.536Z,936.5
2018-12-21T05:11:20.492Z,936.5
2018-12-21T05:12:20.395Z,936.5
2018-12-21T05:13:20.345Z,936.5
2018-12-21T05:14:20.466Z,936.5
2018-12-21T05:15:20.373Z,936.5
2018-12-21T05:16:20.259Z,936.4
2018-12-21T05:17:20.594Z,936.5
2018-12-21T05:18:20.504Z,936.4
2018-12-21T05:19:20.394Z,936.5
2018-12-21T05:20:20.298Z,936.5
2018-12-21T05:21:23.007Z,936.5
2018-12-21T05:22:22.888Z,936.4
2018-12-21T05:23:22.810Z,936.4
2018-12-21T05:24:22.706Z,936.5
2018-12-21T05:25:22.591Z,936.5
2018-12-21T05:26:22.490Z,936.5
2018-12-21T05:27:22.810Z,936.5
2018-12-21T05:28:22.922Z,936.4
2018-12-21T05:29:22.830Z,936.5
2018-12-21T05:30:22.714Z,936.4
2018-12-21T05:31:29.449Z,936.3
2018-12-21T05:32:29.351Z,936.4
2018-12-21T05:33:29.297Z,936.4
2018-12-21T05:34:29.208Z,936.4
2018-12-21T05:35:29.153Z,936.4
2018-12-21T05:36:29.055Z,936.3
2018-12-21T05:37:29.684Z,936.3
2018-12-21T05:38:29.565Z,936.3
2018-12-21T05:39:29.477Z,936.3
2018-12-21T05:40:29.370Z,936.2
2018-12-21T05:41:29.254Z,936.2
2018-12-21T05:42:29.149Z,936.2
2018-12-21T05:43:29.057Z,936.2
2018-12-21T05:44:28.963Z,936.3
2018-12-21T05:45:28.854Z,936.3
2018-12-21T05:46:28.751Z,936.3
2018-12-21T05:47:29.122Z,936.3
2018-12-21T05:48:29.026Z,936.3
2018-12-21T05:49:28.951Z,936.3
2018-12-21T05:50:28.855Z,936.2
2018-12-21T05:51:28.601Z,936.3
2018-12-21T05:52:28.339Z,936.2
2018-12-21T05:53:28.225Z,936.2
2018-12-21T05:54:28.106Z,936.2
2018-12-21T05:55:27.839Z,936.2
2018-12-21T05:56:27.579Z,936.1
2018-12-21T05:57:27.920Z,936.3
2018-12-21T05:58:27.805Z,935.9
2018-12-21T05:59:27.715Z,936.2
2018-12-21T06:00:27.655Z,936.3
2018-12-21T06:01:27.556Z,936.3
2018-12-21T06:02:27.552Z,936.3
2018-12-21T06:03:27.424Z,936.3
2018-12-21T06:04:27.332Z,936.2
2018-12-21T06:05:27.242Z,935.8
2018-12-21T06:06:27.159Z,936.3
2018-12-21T06:07:27.460Z,936.3
2018-12-21T06:08:27.389Z,936.3
2018-12-21T06:09:27.258Z,936.1
2018-12-21T06:10:27.160Z,936.1
2018-12-21T06:11:27.068Z,936
2018-12-21T06:12:26.975Z,936.1
2018-12-21T06:13:26.985Z,936.2
2018-12-21T06:14:26.893Z,935.9
2018-12-21T06:15:27.820Z,936.2
2018-12-21T06:16:27.726Z,935.9
2018-12-21T06:17:28.028Z,936.2
2018-12-21T06:18:27.934Z,935.9
2018-12-21T06:19:27.830Z,936
2018-12-21T06:20:27.727Z,936.1
2018-12-21T06:21:27.853Z,935.9
2018-12-21T06:22:27.754Z,935.8
2018-12-21T06:23:27.647Z,935.8
2018-12-21T06:24:27.778Z,935.9
2018-12-21T06:25:27.705Z,935.9
2018-12-21T06:26:27.621Z,935.9
2018-12-21T06:27:27.946Z,935.9
2018-12-21T06:28:27.882Z,935.9
2018-12-21T06:29:27.765Z,935.9
2018-12-21T06:30:27.670Z,935.9
2018-12-21T06:31:27.565Z,935.8
2018-12-21T06:32:27.459Z,935.9
2018-12-21T06:33:27.361Z,935.9
2018-12-21T06:34:27.488Z,935.8
2018-12-21T06:35:27.366Z,935.8
2018-12-21T06:36:27.290Z,935.7
2018-12-21T06:37:27.629Z,935.7
2018-12-21T06:38:27.517Z,935.7
2018-12-21T06:39:27.417Z,935.7
2018-12-21T06:40:27.308Z,935.6
2018-12-21T06:41:27.305Z,935.6
2018-12-21T06:42:27.209Z,935.5
2018-12-21T06:43:27.099Z,935.5
2018-12-21T06:44:26.996Z,935.2
2018-12-21T06:45:26.874Z,935.5
2018-12-21T06:46:27.779Z,935.6
2018-12-21T06:47:28.111Z,935.4
2018-12-21T06:48:28.005Z,935.5
2018-12-21T06:49:27.891Z,935.6
2018-12-21T06:50:27.815Z,935.5
2018-12-21T06:51:27.712Z,935.5
2018-12-21T06:52:27.631Z,935.5
2018-12-21T06:53:27.521Z,935.5
2018-12-21T06:54:27.429Z,935.5
2018-12-21T06:55:27.305Z,935.5
2018-12-21T06:56:27.205Z,935.5
2018-12-21T06:57:27.749Z,935.6
2018-12-21T06:58:27.670Z,935.5
2018-12-21T06:59:30.125Z,935.5
2018-12-21T07:00:30.125Z,935.4
2018-12-21T07:01:30.016Z,935.4
2018-12-21T07:02:29.929Z,935.4
2018-12-21T07:03:29.836Z,935.4
2018-12-21T07:04:29.743Z,935.3
2018-12-21T07:05:29.639Z,935.4
2018-12-21T07:06:29.553Z,935.3
2018-12-21T07:07:30.093Z,935.2
2018-12-21T07:08:30.031Z,935.2
2018-12-21T07:09:30.185Z,935.2
2018-12-21T07:10:30.070Z,935.3
2018-12-21T07:11:29.961Z,935.2
2018-12-21T07:12:29.859Z,935.3
2018-12-21T07:13:29.763Z,935.3
2018-12-21T07:14:29.703Z,935.1
2018-12-21T07:15:29.593Z,935.3
2018-12-21T07:16:32.483Z,935.2
2018-12-21T07:17:32.803Z,935.2
2018-12-21T07:18:32.697Z,935.3
2018-12-21T07:19:32.595Z,935.1
2018-12-21T07:20:32.499Z,935.1
2018-12-21T07:21:33.070Z,935.2
2018-12-21T07:22:32.968Z,935.2
2018-12-21T07:23:32.857Z,935
2018-12-21T07:24:32.793Z,935.2
2018-12-21T07:25:32.713Z,935.2
2018-12-21T07:26:32.655Z,935.2
2018-12-21T07:27:32.991Z,935
2018-12-21T07:28:32.897Z,935
2018-12-21T07:29:32.807Z,935.2
2018-12-21T07:30:32.701Z,935
2018-12-21T07:31:32.577Z,935.2
2018-12-21T07:32:32.497Z,935.2
2018-12-21T07:33:32.507Z,935.2
2018-12-21T07:34:32.426Z,935.1
2018-12-21T07:35:32.311Z,935.3
2018-12-21T07:36:32.204Z,935.3
2018-12-21T07:37:32.539Z,935.2
2018-12-21T07:38:32.421Z,935.3
2018-12-21T07:39:33.239Z,935.2
2018-12-21T07:40:33.243Z,935.2
2018-12-21T07:41:33.129Z,935.3
2018-12-21T07:42:33.023Z,935.3
2018-12-21T07:43:32.918Z,935.3
2018-12-21T07:44:32.827Z,935.4
2018-12-21T07:45:32.726Z,935.3
2018-12-21T07:46:32.602Z,935
2018-12-21T07:47:33.165Z,935.3
2018-12-21T07:48:33.075Z,935.2
2018-12-21T07:49:32.978Z,935.2
2018-12-21T07:50:32.879Z,935.2
2018-12-21T07:51:32.995Z,935.2
2018-12-21T07:52:32.902Z,935.2
2018-12-21T07:53:37.059Z,935.2
2018-12-21T07:54:36.955Z,935.2
2018-12-21T07:55:36.870Z,935.1
2018-12-21T07:56:36.775Z,935
2018-12-21T07:57:37.168Z,935.2
2018-12-21T07:58:37.073Z,935.3
2018-12-21T07:59:36.972Z,935.2
2018-12-21T08:00:36.848Z,935.2
2018-12-21T08:01:36.791Z,935.2
2018-12-21T08:02:36.697Z,935.1
2018-12-21T08:03:36.578Z,935.2
2018-12-21T08:04:36.496Z,935.2
2018-12-21T08:05:36.737Z,935.2
2018-12-21T08:06:36.645Z,935.2
2018-12-21T08:07:37.099Z,935.2
2018-12-21T08:08:37.102Z,935.2
2018-12-21T08:09:37.002Z,935.2
2018-12-21T08:10:36.906Z,935
2018-12-21T08:11:36.826Z,935.1
2018-12-21T08:12:36.827Z,935.1
2018-12-21T08:13:36.541Z,935.1
2018-12-21T08:14:36.424Z,935.1
2018-12-21T08:15:36.366Z,935.1
2018-12-21T08:16:36.277Z,935.2
2018-12-21T08:17:36.587Z,935
2018-12-21T08:18:36.540Z,935.3
2018-12-21T08:19:36.430Z,935.2
2018-12-21T08:20:36.319Z,935
2018-12-21T08:21:36.199Z,935.2
2018-12-21T08:22:36.334Z,935.1
2018-12-21T08:23:44.908Z,935.2
2018-12-21T08:24:44.787Z,935.2
2018-12-21T08:25:44.770Z,935.2
2018-12-21T08:26:44.704Z,935.2
2018-12-21T08:27:45.018Z,935.3
2018-12-21T08:28:44.900Z,935.2
2018-12-21T08:29:44.801Z,935.2
2018-12-21T08:30:44.685Z,935.1
2018-12-21T08:31:44.680Z,934.9
2018-12-21T08:32:44.633Z,935
2018-12-21T08:33:44.522Z,935.1
2018-12-21T08:34:44.502Z,935
2018-12-21T08:35:44.508Z,935
2018-12-21T08:36:44.669Z,935.1
2018-12-21T08:37:45.037Z,935
2018-12-21T08:38:44.982Z,935.1
2018-12-21T08:39:44.887Z,935.1
2018-12-21T08:40:44.818Z,935.1
2018-12-21T08:41:45.897Z,935
2018-12-21T08:42:45.830Z,935.1
2018-12-21T08:43:45.809Z,934.9
2018-12-21T08:44:45.683Z,935
2018-12-21T08:45:45.582Z,935
2018-12-21T08:46:45.469Z,935
2018-12-21T08:47:45.780Z,935
2018-12-21T08:48:45.710Z,935
2018-12-21T08:49:45.598Z,935
2018-12-21T08:50:45.483Z,934.9
2018-12-21T08:51:45.378Z,935
2018-12-21T08:52:45.302Z,934.9
2018-12-21T08:53:53.384Z,934.9
2018-12-21T08:54:53.278Z,934.9
2018-12-21T08:55:53.161Z,934.9
2018-12-21T08:56:53.045Z,934.8
2018-12-21T08:57:53.376Z,934.6
2018-12-21T08:58:53.273Z,934.9
2018-12-21T08:59:53.181Z,935
2018-12-21T09:00:53.087Z,933.5
2018-12-21T09:01:53.012Z,935
2018-12-21T09:02:52.911Z,934.9
2018-12-21T09:03:52.822Z,935
2018-12-21T09:04:52.679Z,934.8
2018-12-21T09:05:52.588Z,934.9
2018-12-21T09:06:52.491Z,934.7
2018-12-21T09:07:52.811Z,934.7
2018-12-21T09:08:52.735Z,934.9
2018-12-21T09:09:52.626Z,935
2018-12-21T09:10:52.530Z,934.8
2018-12-21T09:11:52.429Z,934.9
2018-12-21T09:12:52.350Z,934.9
2018-12-21T09:13:52.244Z,934.9
2018-12-21T09:14:52.153Z,933.7
2018-12-21T09:15:52.518Z,935.2
2018-12-21T09:16:52.414Z,935.2
2018-12-21T09:17:53.413Z,935
2018-12-21T09:18:53.302Z,934.9
2018-12-21T09:19:53.333Z,935
2018-12-21T09:20:53.249Z,935
2018-12-21T09:21:53.145Z,935.1
2018-12-21T09:22:53.042Z,935.2
2018-12-21T09:24:01.696Z,935.3
2018-12-21T09:25:01.602Z,935.2
2018-12-21T09:26:01.484Z,935.2
2018-12-21T09:27:01.626Z,935.2
2018-12-21T09:28:01.955Z,935
2018-12-21T09:29:02.009Z,935.2
2018-12-21T09:30:01.984Z,935.2
2018-12-21T09:31:01.901Z,935.1
2018-12-21T09:32:06.235Z,935.1
2018-12-21T09:33:06.134Z,935.1
2018-12-21T09:34:06.028Z,935.1
2018-12-21T09:35:05.950Z,935.2
2018-12-21T09:36:05.839Z,935.2
2018-12-21T09:37:05.742Z,935.2
2018-12-21T09:38:06.051Z,935.2
2018-12-21T09:39:05.966Z,935.3
2018-12-21T09:40:05.848Z,935.1
2018-12-21T09:41:05.739Z,935.4
2018-12-21T09:42:05.649Z,935.2
2018-12-21T09:43:05.542Z,935.3
2018-12-21T09:44:05.459Z,935.4
2018-12-21T09:45:06.402Z,935.4
2018-12-21T09:46:06.342Z,935.4
2018-12-21T09:47:06.253Z,935.3
2018-12-21T09:48:06.588Z,935.2
2018-12-21T09:49:06.474Z,935.1
2018-12-21T09:50:06.349Z,935.1
2018-12-21T09:51:06.781Z,935.2
2018-12-21T09:52:06.683Z,935.1
2018-12-21T09:53:06.585Z,935.2
2018-12-21T09:54:11.048Z,935.2
2018-12-21T09:55:10.946Z,935.2
2018-12-21T09:56:10.954Z,935.1
2018-12-21T09:57:10.857Z,935.2
2018-12-21T09:58:11.193Z,935.2
2018-12-21T09:59:11.091Z,935
2018-12-21T10:00:11.004Z,935.2
2018-12-21T10:01:11.918Z,933.8
2018-12-21T10:02:11.872Z,935.2
2018-12-21T10:03:11.876Z,935.2
2018-12-21T10:04:11.816Z,935
2018-12-21T10:05:14.414Z,935.1
2018-12-21T10:06:14.596Z,934.9
2018-12-21T10:07:14.504Z,934.9
2018-12-21T10:08:14.853Z,935.1
2018-12-21T10:09:14.748Z,935
2018-12-21T10:10:14.736Z,934.9
2018-12-21T10:11:14.636Z,934.8
2018-12-21T10:12:15.979Z,934.8
2018-12-21T10:13:15.872Z,934.8
2018-12-21T10:14:16.019Z,934.8
2018-12-21T10:15:16.163Z,934.8
2018-12-21T10:16:16.052Z,934.8
2018-12-21T10:17:15.974Z,934.9
2018-12-21T10:18:16.460Z,935
2018-12-21T10:19:16.336Z,934.1
2018-12-21T10:20:20.670Z,934.8
2018-12-21T10:21:20.784Z,934.9
2018-12-21T10:22:20.697Z,934.8
2018-12-21T10:23:20.582Z,934.7
2018-12-21T10:24:29.622Z,934.6
2018-12-21T10:25:29.624Z,934.5
2018-12-21T10:26:29.522Z,934.5
2018-12-21T10:27:29.438Z,934.5
2018-12-21T10:28:29.770Z,934.5
2018-12-21T10:29:29.814Z,933.1
2018-12-21T10:30:29.718Z,934.5
2018-12-21T10:31:30.200Z,934.4
2018-12-21T10:32:33.088Z,934.3
2018-12-21T10:33:33.161Z,934.3
2018-12-21T10:34:33.062Z,934.3
2018-12-21T10:35:32.970Z,934.3
2018-12-21T10:36:32.868Z,934.3
2018-12-21T10:37:33.034Z,934.1
2018-12-21T10:38:33.398Z,934.1
2018-12-21T10:39:33.282Z,934.1
2018-12-21T10:40:33.876Z,933.8
2018-12-21T10:41:33.762Z,934
2018-12-21T10:42:33.668Z,933.9
2018-12-21T10:43:33.803Z,933.2
2018-12-21T10:44:33.686Z,933.8
2018-12-21T10:45:42.656Z,933.7
2018-12-21T10:46:42.556Z,933.7
2018-12-21T10:47:42.682Z,933.8
2018-12-21T10:48:43.124Z,933.7
2018-12-21T10:49:43.020Z,933.6
2018-12-21T10:50:42.916Z,933.6
2018-12-21T10:51:42.799Z,933.6
2018-12-21T10:52:42.710Z,933.5
2018-12-21T10:53:47.130Z,933.4
2018-12-21T10:54:47.068Z,933.3
2018-12-21T10:55:47.069Z,933.5
2018-12-21T10:56:47.438Z,932.7
2018-12-21T10:57:47.337Z,933.4
2018-12-21T10:58:50.039Z,933.3
2018-12-21T10:59:49.972Z,933.3
2018-12-21T11:00:49.851Z,933.3
2018-12-21T11:01:49.746Z,933.4
2018-12-21T11:02:49.642Z,933.2
2018-12-21T11:03:49.566Z,933.3
2018-12-21T11:04:49.451Z,933.3
2018-12-21T11:05:49.336Z,933.2
2018-12-21T11:06:49.356Z,933.2
2018-12-21T11:07:49.240Z,933.1
2018-12-21T11:08:49.582Z,933.1
2018-12-21T11:09:49.722Z,933.1
2018-12-21T11:10:49.638Z,932.9
2018-12-21T11:11:49.532Z,933
2018-12-21T11:12:49.435Z,932.9
2018-12-21T11:13:49.355Z,932.7
2018-12-21T11:14:49.272Z,932.8
2018-12-21T11:15:49.441Z,932.9
2018-12-21T11:16:49.349Z,932.8
2018-12-21T11:17:49.345Z,932.5
2018-12-21T11:18:49.788Z,932.5
2018-12-21T11:19:49.717Z,932.3
2018-12-21T11:20:50.654Z,932.4
2018-12-21T11:21:50.822Z,932.4
2018-12-21T11:22:50.721Z,932.3
2018-12-21T11:23:50.650Z,932.2
2018-12-21T11:24:53.330Z,932.3
2018-12-21T11:25:53.314Z,932
2018-12-21T11:26:53.208Z,932.1
2018-12-21T11:27:53.108Z,932
2018-12-21T11:28:55.896Z,932.1
2018-12-21T11:29:55.828Z,932.3
2018-12-21T11:30:56.760Z,932.2
2018-12-21T11:31:56.739Z,932
2018-12-21T11:32:56.624Z,932.1
2018-12-21T11:33:56.520Z,932.1
2018-12-21T11:34:56.442Z,932.2
2018-12-21T11:35:56.324Z,932.1
2018-12-21T11:36:56.445Z,932.1
2018-12-21T11:37:56.326Z,932
2018-12-21T11:38:56.773Z,932
2018-12-21T11:39:56.664Z,932
2018-12-21T11:40:56.549Z,932
2018-12-21T11:41:56.430Z,932
2018-12-21T11:42:56.557Z,931.9
2018-12-21T11:43:56.475Z,931.9
2018-12-21T11:44:56.407Z,931.9
2018-12-21T11:46:03.696Z,931.9
2018-12-21T11:47:03.581Z,931.9
2018-12-21T11:48:03.469Z,931.9
2018-12-21T11:49:03.788Z,931.8
2018-12-21T11:50:03.724Z,931.7
2018-12-21T11:51:03.981Z,931.8
2018-12-21T11:52:03.872Z,931.8
2018-12-21T11:53:03.760Z,931.8
2018-12-21T11:54:03.675Z,931.7
2018-12-21T11:55:03.578Z,931.5
2018-12-21T11:56:03.511Z,931.7
2018-12-21T11:57:03.424Z,931.7
2018-12-21T11:58:03.350Z,931.7
2018-12-21T11:59:03.899Z,931.5
2018-12-21T12:00:03.779Z,931.6
2018-12-21T12:01:03.689Z,931.4
2018-12-21T12:02:03.816Z,931.6
2018-12-21T12:03:03.745Z,931.5
2018-12-21T12:04:03.634Z,931.5
2018-12-21T12:05:04.051Z,931.6
2018-12-21T12:06:04.180Z,931.6
2018-12-21T12:07:04.127Z,931.7
2018-12-21T12:08:04.032Z,931.5
2018-12-21T12:09:07.382Z,931.4
2018-12-21T12:10:07.280Z,931.5
2018-12-21T12:11:07.189Z,931.5
2018-12-21T12:12:07.106Z,931.5
2018-12-21T12:13:07.021Z,931.4
2018-12-21T12:14:06.981Z,931.5
2018-12-21T12:15:07.911Z,930.9
2018-12-21T12:16:07.797Z,931.5
2018-12-21T12:17:07.731Z,931.7
2018-12-21T12:18:07.868Z,931.9
2018-12-21T12:19:08.207Z,931.8
2018-12-21T12:20:08.781Z,931.7
2018-12-21T12:21:08.704Z,931.7
2018-12-21T12:22:08.656Z,931.6
2018-12-21T12:23:08.778Z,931.7
2018-12-21T12:24:08.708Z,931.6
2018-12-21T12:25:08.608Z,931.5
2018-12-21T12:26:08.504Z,931.5
2018-12-21T12:27:08.500Z,930
2018-12-21T12:28:08.771Z,931.4
2018-12-21T12:29:09.129Z,931.5
2018-12-21T12:30:09.036Z,931.4
2018-12-21T12:31:08.939Z,931.5
2018-12-21T12:32:08.824Z,931.4
2018-12-21T12:33:08.745Z,931.5
2018-12-21T12:34:08.649Z,931.6
2018-12-21T12:35:08.544Z,931.5
2018-12-21T12:36:08.435Z,931.4
2018-12-21T12:37:08.316Z,931.5
2018-12-21T12:38:08.206Z,931.4
2018-12-21T12:39:08.516Z,931.4
2018-12-21T12:40:08.427Z,931.4
2018-12-21T12:41:08.333Z,931.4
2018-12-21T12:42:08.249Z,931.4
2018-12-21T12:43:08.954Z,931.4
2018-12-21T12:44:09.793Z,931.2
2018-12-21T12:45:10.698Z,931.2
2018-12-21T12:46:11.165Z,931.3
2018-12-21T12:47:12.092Z,931.3
2018-12-21T12:48:12.802Z,931.2
2018-12-21T12:49:14.379Z,931.1
2018-12-21T12:50:14.349Z,931.2
2018-12-21T12:51:15.391Z,931
2018-12-21T12:52:16.125Z,931.2
2018-12-21T12:53:16.937Z,931.1
2018-12-21T12:54:17.685Z,930.8
2018-12-21T12:55:18.514Z,930.9
2018-12-21T12:56:19.194Z,931
2018-12-21T12:57:19.394Z,931.1
2018-12-21T12:58:20.285Z,931
2018-12-21T12:59:22.455Z,931
2018-12-21T13:00:22.417Z,931.2